createdAt,value
2023-03-23T00:00:37.559Z,60.70
2023-03-23T00:03:09.685Z,60.60
2023-03-23T00:05:51.128Z,60.70
2023-03-23T00:08:23.345Z,60.70
2023-03-23T00:10:59.524Z,60.80
2023-03-23T00:13:34.745Z,60.80
2023-03-23T00:16:18.556Z,60.80
2023-03-23T00:18:54.008Z,60.90
2023-03-23T00:21:34.702Z,60.90
2023-03-23T00:24:10.624Z,61.00
2023-03-23T00:26:48.236Z,61.00
2023-03-23T00:29:24.430Z,61.10
2023-03-23T00:31:57.720Z,61.20
2023-03-23T00:34:33.520Z,61.20
2023-03-23T00:37:05.630Z,61.10
2023-03-23T00:39:39.502Z,61.10
2023-03-23T00:42:11.855Z,61.20
2023-03-23T00:44:46.574Z,61.10
2023-03-23T00:47:18.728Z,61.10
2023-03-23T00:49:53.375Z,61.10
2023-03-23T00:52:25.710Z,61.20
2023-03-23T00:54:57.857Z,61.10
2023-03-23T00:57:29.941Z,61.10
2023-03-23T01:00:14.847Z,60.90
2023-03-23T01:02:47.375Z,61.00
2023-03-23T01:05:19.687Z,60.90
2023-03-23T01:07:51.782Z,60.90
2023-03-23T01:10:26.003Z,60.90
2023-03-23T01:12:58.178Z,60.90
2023-03-23T01:15:33.349Z,61.00
2023-03-23T01:18:05.724Z,61.10
2023-03-23T01:20:38.604Z,61.20
2023-03-23T01:23:10.821Z,61.30
2023-03-23T01:25:43.137Z,61.50
2023-03-23T01:28:15.941Z,61.50
2023-03-23T01:30:50.834Z,61.60
2023-03-23T01:33:22.930Z,61.60
2023-03-23T01:35:55.487Z,61.50
2023-03-23T01:38:27.805Z,61.60
2023-03-23T01:41:00.496Z,61.80
2023-03-23T01:43:33.273Z,61.80
2023-03-23T01:46:08.018Z,61.80
2023-03-23T01:48:40.664Z,61.90
2023-03-23T01:51:16.693Z,62.00
2023-03-23T01:53:55.262Z,62.10
2023-03-23T01:56:42.875Z,62.20
2023-03-23T01:59:16.601Z,62.20
2023-03-23T02:01:53.536Z,62.10
2023-03-23T02:04:27.216Z,62.20
2023-03-23T02:06:59.364Z,62.20
2023-03-23T02:09:32.036Z,62.20
2023-03-23T02:12:04.976Z,62.20
2023-03-23T02:14:37.706Z,62.30
2023-03-23T02:17:19.605Z,62.40
2023-03-23T02:20:08.536Z,62.60
2023-03-23T02:23:02.236Z,62.60
2023-03-23T02:25:56.208Z,62.70
2023-03-23T02:28:56.349Z,62.80
2023-03-23T02:31:53.087Z,62.90
2023-03-23T02:34:30.863Z,62.90
2023-03-23T02:37:08.150Z,62.90
2023-03-23T02:39:44.688Z,62.90
2023-03-23T02:42:20.911Z,63.00
2023-03-23T02:44:56.121Z,63.00
2023-03-23T02:47:30.907Z,63.10
2023-03-23T02:50:08.569Z,63.10
2023-03-23T02:52:43.022Z,63.20
2023-03-23T02:55:17.095Z,63.20
2023-03-23T02:57:51.248Z,63.30
2023-03-23T03:00:23.480Z,63.30
2023-03-23T03:02:57.086Z,63.40
2023-03-23T03:05:39.758Z,63.40
2023-03-23T03:08:20.278Z,63.40
2023-03-23T03:10:56.749Z,63.50
2023-03-23T03:13:39.477Z,63.50
2023-03-23T03:16:21.540Z,63.60
2023-03-23T03:18:58.086Z,63.80
2023-03-23T03:21:36.822Z,63.90
2023-03-23T03:24:12.586Z,63.80
2023-03-23T03:26:48.574Z,63.80
2023-03-23T03:29:26.328Z,63.80
2023-03-23T03:32:00.797Z,63.90
2023-03-23T03:34:34.798Z,63.80
2023-03-23T03:37:12.784Z,63.80
2023-03-23T03:39:45.654Z,63.80
2023-03-23T03:42:18.060Z,63.80
2023-03-23T03:44:50.231Z,63.90
2023-03-23T03:47:22.770Z,63.90
2023-03-23T03:49:54.832Z,64.00
2023-03-23T03:52:30.040Z,64.00
2023-03-23T03:55:02.431Z,64.00
2023-03-23T03:57:35.687Z,64.10
2023-03-23T04:00:16.152Z,64.10
2023-03-23T04:02:55.823Z,64.20
2023-03-23T04:05:29.946Z,64.20
2023-03-23T04:08:09.354Z,64.20
2023-03-23T04:10:41.929Z,64.20
2023-03-23T04:13:14.003Z,64.20
2023-03-23T04:15:47.272Z,64.20
2023-03-23T04:18:39.690Z,64.30
2023-03-23T04:21:12.674Z,64.30
2023-03-23T04:23:47.947Z,64.30
2023-03-23T04:26:20.541Z,64.30
2023-03-23T04:28:53.798Z,64.30
2023-03-23T04:31:26.404Z,64.30
2023-03-23T04:34:01.151Z,64.30
2023-03-23T04:36:56.975Z,64.30
2023-03-23T04:39:30.276Z,64.30
2023-03-23T04:42:02.924Z,64.30
2023-03-23T04:44:35.011Z,64.30
2023-03-23T04:47:10.401Z,64.40
2023-03-23T04:49:42.590Z,64.40
2023-03-23T04:52:15.141Z,65.00
2023-03-23T04:54:50.268Z,64.50
2023-03-23T04:57:22.518Z,64.50
2023-03-23T04:59:55.073Z,64.60
2023-03-23T05:02:31.284Z,64.60
2023-03-23T05:05:03.472Z,64.60
2023-03-23T05:07:35.974Z,64.50
2023-03-23T05:10:12.749Z,64.60
2023-03-23T05:12:56.851Z,64.60
2023-03-23T05:15:29.049Z,64.60
2023-03-23T05:18:01.158Z,64.60
2023-03-23T05:20:33.848Z,64.50
2023-03-23T05:23:06.697Z,64.70
2023-03-23T05:25:41.892Z,64.80
2023-03-23T05:28:14.052Z,65.40
2023-03-23T05:30:46.181Z,64.90
2023-03-23T05:33:18.341Z,65.00
2023-03-23T05:35:51.394Z,64.90
2023-03-23T05:38:23.763Z,64.90
2023-03-23T05:41:02.170Z,64.90
2023-03-23T05:43:34.328Z,64.90
2023-03-23T05:46:06.425Z,65.00
2023-03-23T05:48:39.342Z,65.00
2023-03-23T05:51:11.409Z,65.00
2023-03-23T05:53:48.195Z,65.00
2023-03-23T06:19:18.657Z,66.10
2023-03-23T06:21:51.029Z,66.20
2023-03-23T06:24:23.671Z,66.30
2023-03-23T06:27:02.240Z,66.50
2023-03-23T06:29:34.606Z,66.60
2023-03-23T06:32:07.085Z,66.70
2023-03-23T06:34:45.681Z,66.90
2023-03-23T06:37:18.167Z,67.20
2023-03-23T06:39:56.505Z,67.30
2023-03-23T06:42:28.846Z,67.50
2023-03-23T06:45:02.257Z,67.60
2023-03-23T06:47:34.871Z,67.80
2023-03-23T06:50:10.702Z,67.90
2023-03-23T06:52:51.265Z,68.10
2023-03-23T06:55:23.359Z,68.30
2023-03-23T06:57:55.464Z,68.30
2023-03-23T07:00:28.006Z,68.50
2023-03-23T07:03:00.331Z,68.60
2023-03-23T07:05:36.202Z,68.70
2023-03-23T07:08:08.301Z,68.80
2023-03-23T07:10:40.419Z,68.90
2023-03-23T07:13:12.541Z,69.60
2023-03-23T07:15:45.236Z,69.20
2023-03-23T07:18:18.024Z,69.40
2023-03-23T07:20:53.611Z,69.60
2023-03-23T07:23:25.841Z,69.80
2023-03-23T07:25:58.138Z,69.80
2023-03-23T07:28:31.188Z,69.80
2023-03-23T07:31:03.639Z,70.10
2023-03-23T07:33:36.829Z,70.20
2023-03-23T07:36:12.389Z,70.40
2023-03-23T07:38:45.115Z,70.80
2023-03-23T07:41:17.335Z,71.00
2023-03-23T07:43:49.438Z,71.50
2023-03-23T07:46:21.563Z,71.80
2023-03-23T07:48:54.292Z,71.90
2023-03-23T07:51:29.195Z,72.00
2023-03-23T07:54:05.171Z,72.20
2023-03-23T07:56:42.640Z,72.40
2023-03-23T07:59:14.993Z,72.50
2023-03-23T08:01:47.236Z,72.80
2023-03-23T08:04:19.499Z,72.90
2023-03-23T08:06:54.162Z,73.20
2023-03-23T08:09:26.234Z,73.50
2023-03-23T08:11:58.621Z,73.70
2023-03-23T08:14:31.616Z,73.80
2023-03-23T08:17:03.715Z,74.00
2023-03-23T08:19:37.909Z,74.30
2023-03-23T08:22:12.811Z,74.50
2023-03-23T08:24:45.060Z,74.60
2023-03-23T08:27:17.185Z,75.00
2023-03-23T08:29:49.541Z,75.10
2023-03-23T08:32:21.644Z,75.70
2023-03-23T08:34:54.046Z,76.30
2023-03-23T08:37:28.840Z,76.70
2023-03-23T08:40:01.073Z,77.00
2023-03-23T08:42:33.257Z,77.20
2023-03-23T08:45:08.117Z,77.60
2023-03-23T08:47:40.261Z,77.70
2023-03-23T08:50:16.006Z,78.30
2023-03-23T08:52:51.337Z,78.00
2023-03-23T08:55:23.742Z,78.00
2023-03-23T08:57:56.724Z,78.00
2023-03-23T09:00:33.815Z,78.00
2023-03-23T09:03:06.428Z,78.00
2023-03-23T09:05:40.497Z,78.10
2023-03-23T09:08:15.569Z,78.20
2023-03-23T09:10:50.770Z,78.20
2023-03-23T09:13:23.013Z,78.20
2023-03-23T09:15:55.620Z,78.20
2023-03-23T09:18:27.863Z,78.10
2023-03-23T09:21:00.708Z,78.00
2023-03-23T09:23:35.490Z,77.90
2023-03-23T09:26:08.334Z,77.80
2023-03-23T09:28:40.433Z,77.70
2023-03-23T09:31:13.299Z,77.50
2023-03-23T09:33:47.113Z,77.50
2023-03-23T09:36:19.433Z,77.30
2023-03-23T09:38:54.406Z,77.30
2023-03-23T09:42:23.330Z,77.60
2023-03-23T09:45:25.653Z,77.80
2023-03-23T09:48:15.443Z,78.30
2023-03-23T09:50:52.893Z,79.50
2023-03-23T09:53:30.060Z,80.40
2023-03-23T09:56:11.205Z,81.40
2023-03-23T09:58:51.901Z,82.60
2023-03-23T10:01:27.863Z,83.70
2023-03-23T10:04:04.611Z,84.70
2023-03-23T10:06:37.387Z,86.10
2023-03-23T10:09:15.653Z,86.90
2023-03-23T10:11:59.916Z,88.40
2023-03-23T10:14:44.763Z,89.80
2023-03-23T10:17:22.686Z,90.30
2023-03-23T10:20:00.820Z,90.90
2023-03-23T10:22:35.943Z,91.40
2023-03-23T10:25:17.388Z,91.80
2023-03-23T10:28:00.194Z,92.10
2023-03-23T10:30:35.967Z,92.30
2023-03-23T10:33:15.714Z,92.70
2023-03-23T10:35:54.120Z,93.00
2023-03-23T10:38:31.285Z,93.30
2023-03-23T10:41:07.661Z,93.90
2023-03-23T10:43:42.655Z,94.50
2023-03-23T10:46:32.135Z,95.00
2023-03-23T10:49:09.581Z,95.40
2023-03-23T10:51:47.866Z,95.90
2023-03-23T10:54:29.105Z,96.30
2023-03-23T10:57:03.441Z,96.60
2023-03-23T10:59:41.710Z,97.10
2023-03-23T11:02:29.184Z,97.70
2023-03-23T11:05:09.495Z,98.10
2023-03-23T11:07:51.202Z,98.30
2023-03-23T11:10:26.129Z,98.60
2023-03-23T11:12:59.536Z,98.70
2023-03-23T11:15:38.582Z,98.90
2023-03-23T11:18:14.384Z,99.00
2023-03-23T11:20:50.467Z,99.10
2023-03-23T11:23:24.779Z,99.10
2023-03-23T11:26:00.137Z,99.00
2023-03-23T11:28:35.712Z,99.00
2023-03-23T11:31:10.931Z,98.90
2023-03-23T11:34:05.554Z,98.90
2023-03-23T11:36:42.088Z,98.90
2023-03-23T11:39:26.500Z,98.90
2023-03-23T11:42:09.273Z,99.10
2023-03-23T11:44:43.483Z,98.80
2023-03-23T11:47:25.352Z,98.80
2023-03-23T11:50:05.774Z,98.80
2023-03-23T11:52:44.058Z,98.70
2023-03-23T11:55:20.370Z,98.60
2023-03-23T11:57:52.725Z,98.40
2023-03-23T12:00:26.449Z,98.30
2023-03-23T12:03:41.659Z,98.30
2023-03-23T12:06:20.334Z,98.20
2023-03-23T12:09:03.244Z,98.10
2023-03-23T12:11:42.590Z,98.10
2023-03-23T12:14:23.234Z,98.00
2023-03-23T12:17:12.208Z,97.70
2023-03-23T12:19:58.153Z,97.60
2023-03-23T12:22:41.512Z,97.40
2023-03-23T12:25:34.623Z,97.30
2023-03-23T12:28:16.743Z,97.10
2023-03-23T12:30:55.766Z,96.70
2023-03-23T12:33:46.863Z,96.30
2023-03-23T12:41:54.928Z,95.60
2023-03-23T12:44:47.508Z,95.20
2023-03-23T12:47:31.946Z,94.80
2023-03-23T12:50:11.883Z,94.50
2023-03-23T12:52:50.166Z,94.20
2023-03-23T12:55:29.489Z,93.90
2023-03-23T12:58:06.690Z,93.70
2023-03-23T13:00:57.187Z,93.30
2023-03-23T13:03:34.574Z,92.90
2023-03-23T13:06:14.813Z,92.70
2023-03-23T13:08:54.442Z,92.40
2023-03-23T13:11:35.438Z,92.00
2023-03-23T13:14:21.355Z,91.80
2023-03-23T13:17:03.903Z,91.70
2023-03-23T13:19:46.693Z,91.50
2023-03-23T13:22:22.932Z,91.30
2023-03-23T13:24:58.012Z,91.00
2023-03-23T13:30:24.105Z,90.60
2023-03-23T13:33:07.590Z,90.50
2023-03-23T13:35:42.962Z,90.20
2023-03-23T13:38:24.333Z,90.10
2023-03-23T13:40:57.591Z,90.00
2023-03-23T13:43:32.921Z,90.00
2023-03-23T13:46:11.320Z,90.00
2023-03-23T13:48:51.673Z,90.10
2023-03-23T13:51:29.756Z,90.10
2023-03-23T13:54:25.195Z,90.10
2023-03-23T13:56:59.297Z,89.70
2023-03-23T13:59:36.872Z,89.60
2023-03-23T14:02:23.819Z,89.20
2023-03-23T14:05:09.583Z,88.80
2023-03-23T14:07:55.665Z,88.20
2023-03-23T14:10:35.331Z,87.60
2023-03-23T14:13:19.985Z,87.50
2023-03-23T14:16:00.925Z,87.20
2023-03-23T14:18:37.164Z,86.90
2023-03-23T14:21:17.843Z,86.70
2023-03-23T14:23:50.130Z,86.30
2023-03-23T14:26:22.545Z,86.00
2023-03-23T14:28:55.948Z,85.40
2023-03-23T14:31:29.851Z,85.10
2023-03-23T14:34:07.368Z,85.00
2023-03-23T14:36:42.179Z,85.00
2023-03-23T14:39:22.261Z,85.00
2023-03-23T14:41:56.732Z,84.80
2023-03-23T14:44:32.027Z,84.70
2023-03-23T14:47:08.665Z,84.60
2023-03-23T14:49:43.685Z,84.40
2023-03-23T14:52:19.090Z,84.20
2023-03-23T14:54:51.367Z,84.20
2023-03-23T14:57:29.296Z,84.00
2023-03-23T15:00:01.485Z,83.90
2023-03-23T15:02:37.326Z,83.90
2023-03-23T15:05:14.042Z,83.80
2023-03-23T15:07:52.326Z,83.80
2023-03-23T15:10:25.594Z,83.60
2023-03-23T15:12:59.186Z,83.50
2023-03-23T15:15:34.170Z,83.50
2023-03-23T15:18:06.829Z,83.40
2023-03-23T15:20:48.822Z,83.50
2023-03-23T15:23:29.225Z,83.40
2023-03-23T15:26:06.301Z,83.40
2023-03-23T15:28:41.723Z,83.20
2023-03-23T15:31:13.856Z,83.20
2023-03-23T15:33:45.957Z,83.20
2023-03-23T15:36:19.121Z,83.10
2023-03-23T15:38:53.883Z,83.10
2023-03-23T15:41:28.159Z,83.10
2023-03-23T15:44:11.777Z,83.10
2023-03-23T15:46:51.303Z,83.10
2023-03-23T15:49:25.505Z,83.50
2023-03-23T15:51:57.671Z,83.10
2023-03-23T15:54:33.650Z,83.10
2023-03-23T16:03:18.096Z,83.20
2023-03-23T16:05:50.991Z,83.20
2023-03-23T16:08:23.229Z,83.20
2023-03-23T16:10:57.970Z,83.20
2023-03-23T16:13:29.995Z,83.20
2023-03-23T16:16:03.189Z,83.20
2023-03-23T16:18:35.443Z,83.30
2023-03-23T16:21:08.606Z,83.30
2023-03-23T16:23:41.538Z,83.30
2023-03-23T16:26:16.636Z,83.40
2023-03-23T16:28:49.004Z,83.40
2023-03-23T16:31:21.712Z,83.50
2023-03-23T16:33:53.830Z,83.60
2023-03-23T16:36:25.929Z,83.70
2023-03-23T16:38:58.025Z,83.80
2023-03-23T16:41:32.790Z,83.90
2023-03-23T16:44:05.107Z,84.00
2023-03-23T16:46:37.230Z,84.00
2023-03-23T16:49:09.428Z,84.10
2023-03-23T16:51:42.497Z,84.60
2023-03-23T16:54:15.123Z,84.30
2023-03-23T16:56:49.910Z,84.50
2023-03-23T16:59:22.073Z,84.60
2023-03-23T17:01:54.267Z,85.10
2023-03-23T17:04:26.469Z,84.70
2023-03-23T17:06:59.292Z,84.70
2023-03-23T17:09:31.397Z,84.70
2023-03-23T17:12:06.918Z,84.70
2023-03-23T17:14:39.053Z,84.60
2023-03-23T17:17:11.156Z,84.60
2023-03-23T17:19:43.236Z,84.70
2023-03-23T17:22:15.309Z,84.80
2023-03-23T17:24:47.907Z,84.80
2023-03-23T17:27:22.626Z,84.80
2023-03-23T17:29:54.709Z,84.80
2023-03-23T17:32:27.229Z,84.80
2023-03-23T17:34:59.312Z,84.80
2023-03-23T17:37:31.807Z,84.80
2023-03-23T17:40:04.985Z,84.80
2023-03-23T17:42:40.026Z,84.80
2023-03-23T17:45:12.176Z,84.70
2023-03-23T17:47:44.319Z,84.70
2023-03-23T17:50:16.578Z,84.60
2023-03-23T17:52:50.000Z,84.60
2023-03-23T17:55:22.075Z,84.60
2023-03-23T17:57:56.738Z,84.60
2023-03-23T18:00:28.805Z,84.60
2023-03-23T18:03:01.001Z,84.50
2023-03-23T18:05:34.047Z,84.40
2023-03-23T18:08:06.362Z,84.40
2023-03-23T18:10:40.186Z,84.50
2023-03-23T18:13:14.842Z,84.50
2023-03-23T18:15:47.182Z,84.50
2023-03-23T18:18:19.247Z,84.90
2023-03-23T18:20:55.535Z,86.40
2023-03-23T18:23:27.750Z,87.80
2023-03-23T18:25:59.806Z,88.50
2023-03-23T18:28:34.754Z,88.50
2023-03-23T18:31:09.996Z,87.90
2023-03-23T18:33:45.082Z,87.20
2023-03-23T18:36:19.160Z,86.30
2023-03-23T18:38:54.418Z,85.20
2023-03-23T18:41:26.850Z,84.20
2023-03-23T18:44:01.540Z,83.10
2023-03-23T18:46:33.745Z,82.00
2023-03-23T18:49:06.076Z,81.10
2023-03-23T18:51:38.222Z,80.30
2023-03-23T18:54:10.434Z,79.50
2023-03-23T18:56:42.509Z,78.70
2023-03-23T18:59:17.318Z,78.00
2023-03-23T19:01:49.953Z,77.30
2023-03-23T19:04:22.596Z,76.80
2023-03-23T19:06:54.657Z,76.30
2023-03-23T19:09:27.637Z,75.90
2023-03-23T19:11:59.919Z,75.40
2023-03-23T19:14:35.062Z,75.10
2023-03-23T19:31:07.693Z,73.20
2023-03-23T19:33:42.484Z,72.60
2023-03-23T19:36:14.675Z,72.20
2023-03-23T19:38:46.802Z,71.90
2023-03-23T19:41:19.373Z,71.70
2023-03-23T19:43:52.002Z,71.50
2023-03-23T19:46:24.281Z,71.50
2023-03-23T19:48:59.629Z,71.20
2023-03-23T19:51:31.779Z,70.80
2023-03-23T19:54:04.513Z,70.80
2023-03-23T19:56:36.985Z,70.50
2023-03-23T19:59:11.639Z,70.40
2023-03-23T20:01:44.455Z,70.00
2023-03-23T20:04:21.487Z,69.60
2023-03-23T20:06:56.876Z,69.40
2023-03-23T20:09:30.683Z,69.30
2023-03-23T20:12:05.016Z,69.10
2023-03-23T20:14:38.381Z,68.90
2023-03-23T20:17:11.727Z,68.80
2023-03-23T20:19:46.493Z,68.60
2023-03-23T20:22:19.424Z,68.40
2023-03-23T20:24:51.913Z,68.40
2023-03-23T20:27:23.984Z,68.30
2023-03-23T20:29:56.274Z,68.20
2023-03-23T20:32:30.540Z,68.00
2023-03-23T20:35:09.506Z,67.60
2023-03-23T20:37:41.626Z,67.30
2023-03-23T20:40:16.986Z,67.10
2023-03-23T20:42:49.858Z,66.90
2023-03-23T20:45:22.588Z,66.80
2023-03-23T20:47:54.689Z,66.50
2023-03-23T20:50:29.651Z,66.30
2023-03-23T20:53:02.965Z,66.10
2023-03-23T20:55:35.396Z,66.00
2023-03-23T20:58:08.154Z,66.00
2023-03-23T21:00:41.086Z,66.10
2023-03-23T21:03:13.896Z,66.00
2023-03-23T21:05:48.605Z,65.90
2023-03-23T21:08:20.663Z,65.60
2023-03-23T21:10:52.794Z,65.50
2023-03-23T21:13:24.964Z,65.30
2023-03-23T21:15:57.394Z,65.20
2023-03-23T21:18:30.026Z,65.20
2023-03-23T21:21:09.346Z,64.70
2023-03-23T21:23:46.760Z,64.60
2023-03-23T21:26:21.657Z,64.70
2023-03-23T21:28:54.642Z,64.70
2023-03-23T21:31:30.740Z,64.80
2023-03-23T21:34:02.914Z,65.20
2023-03-23T21:36:37.944Z,65.50
2023-03-23T21:39:10.598Z,66.00
2023-03-23T21:41:42.946Z,66.30
2023-03-23T21:44:15.475Z,66.80
2023-03-23T21:46:47.531Z,67.10
2023-03-23T21:49:19.735Z,67.40
2023-03-23T21:51:54.444Z,67.70
2023-03-23T21:54:30.511Z,68.10
2023-03-23T21:57:02.785Z,68.50
2023-03-23T21:59:34.875Z,68.70
2023-03-23T22:02:08.999Z,69.00
2023-03-23T22:04:41.937Z,69.30
2023-03-23T22:07:16.736Z,69.70
2023-03-23T22:09:48.823Z,70.10
2023-03-23T22:12:21.300Z,70.20
2023-03-23T22:14:53.432Z,71.00
2023-03-23T22:17:25.507Z,72.20
2023-03-23T22:19:57.802Z,72.90
2023-03-23T22:22:32.760Z,73.10
2023-03-23T22:25:05.685Z,73.10
2023-03-23T22:27:37.729Z,72.80
2023-03-23T22:30:11.436Z,72.40
2023-03-23T22:32:43.545Z,72.00
2023-03-23T22:35:15.879Z,71.50
2023-03-23T22:37:50.615Z,71.10
2023-03-23T22:40:24.180Z,70.70
2023-03-23T22:42:56.342Z,70.30
2023-03-23T22:45:28.521Z,69.90
2023-03-23T22:48:00.869Z,69.30
2023-03-23T22:50:32.985Z,68.30
2023-03-23T22:53:07.599Z,67.80
2023-03-23T22:55:42.804Z,67.60
2023-03-23T22:58:15.695Z,67.50
2023-03-23T23:00:49.793Z,67.60
2023-03-23T23:03:21.949Z,67.80
2023-03-23T23:05:55.737Z,68.00
2023-03-23T23:08:32.146Z,68.30
2023-03-23T23:11:05.450Z,68.70
2023-03-23T23:13:37.947Z,69.10
2023-03-23T23:16:11.556Z,69.40
2023-03-23T23:18:44.100Z,69.80
2023-03-23T23:21:20.347Z,70.20
2023-03-23T23:23:55.245Z,70.50
2023-03-23T23:26:27.750Z,70.90
2023-03-23T23:29:01.380Z,71.20
2023-03-23T23:31:34.545Z,71.50
2023-03-23T23:34:06.649Z,71.80
2023-03-23T23:36:38.760Z,72.10
2023-03-23T23:39:13.408Z,72.30
2023-03-23T23:41:45.457Z,72.60
2023-03-23T23:44:17.801Z,72.80
2023-03-23T23:46:49.929Z,73.10
2023-03-23T23:49:23.126Z,73.30
2023-03-23T23:51:55.628Z,73.60
2023-03-23T23:54:30.471Z,73.80
2023-03-23T23:57:03.758Z,74.10
2023-03-23T23:59:36.238Z,74.40
